createdAt,value
2022-10-19T00:02:29.063Z,22.63
2022-10-19T00:05:17.707Z,18.13
2022-10-19T00:08:06.397Z,20.93
2022-10-19T00:10:54.834Z,16.47
2022-10-19T00:13:43.276Z,24.17
2022-10-19T00:16:33.649Z,21.97
2022-10-19T00:19:25.263Z,13.67
2022-10-19T00:22:14.226Z,15.53
2022-10-19T00:25:02.757Z,13.50
2022-10-19T00:27:51.228Z,12.17
2022-10-19T00:30:39.830Z,22.63
2022-10-19T00:33:28.290Z,14.83
2022-10-19T00:36:20.424Z,17.03
2022-10-19T00:39:12.007Z,13.70
2022-10-19T00:42:00.392Z,22.17
2022-10-19T00:45:03.396Z,18.47
2022-10-19T00:47:51.783Z,19.07
2022-10-19T00:50:40.658Z,12.53
2022-10-19T00:53:31.633Z,10.37
2022-10-19T00:56:20.093Z,13.50
2022-10-19T00:59:09.403Z,22.63
2022-10-19T01:01:57.867Z,12.53
2022-10-19T01:04:49.010Z,17.63
2022-10-19T01:07:37.643Z,18.00
2022-10-19T01:10:35.071Z,16.77
2022-10-19T01:13:33.558Z,17.57
2022-10-19T01:16:29.294Z,21.50
2022-10-19T01:19:35.791Z,23.00
2022-10-19T01:22:31.837Z,15.57
2022-10-19T01:25:23.459Z,14.43
2022-10-19T01:28:21.274Z,11.67
2022-10-19T01:31:19.747Z,20.03
2022-10-19T01:34:11.899Z,14.23
2022-10-19T01:37:03.608Z,18.80
2022-10-19T01:39:55.707Z,14.97
2022-10-19T01:42:46.349Z,16.20
2022-10-19T01:45:37.952Z,16.73
2022-10-19T01:48:30.232Z,18.57
2022-10-19T01:51:20.449Z,23.23
2022-10-19T01:54:12.916Z,17.93
2022-10-19T01:57:03.022Z,14.17
2022-10-19T01:59:51.546Z,21.17
2022-10-19T02:02:45.171Z,15.53
2022-10-19T02:05:35.741Z,26.43
2022-10-19T02:08:27.915Z,18.27
2022-10-19T02:11:16.662Z,20.03
2022-10-19T02:14:09.612Z,19.20
2022-10-19T02:17:00.823Z,24.10
2022-10-19T02:19:49.231Z,20.07
2022-10-19T02:22:39.217Z,26.00
2022-10-19T02:25:27.904Z,21.10
2022-10-19T02:28:16.534Z,23.63
2022-10-19T02:31:05.590Z,26.53
2022-10-19T02:33:54.437Z,28.40
2022-10-19T02:36:42.912Z,25.80
2022-10-19T02:39:32.923Z,25.50
2022-10-19T02:42:23.844Z,22.83
2022-10-19T02:45:16.239Z,28.67
2022-10-19T02:48:07.306Z,22.00
2022-10-19T02:50:55.727Z,26.30
2022-10-19T02:53:44.143Z,29.60
2022-10-19T02:56:34.285Z,34.47
2022-10-19T02:59:22.727Z,24.63
2022-10-19T03:02:11.133Z,27.97
2022-10-19T03:04:59.562Z,25.63
2022-10-19T03:07:47.999Z,29.17
2022-10-19T03:10:36.421Z,28.73
2022-10-19T03:13:26.341Z,36.93
2022-10-19T03:16:15.109Z,31.10
2022-10-19T03:19:03.694Z,28.07
2022-10-19T03:21:52.179Z,28.97
2022-10-19T03:24:40.600Z,37.30
2022-10-19T03:27:29.036Z,35.03
2022-10-19T03:30:18.803Z,31.40
2022-10-19T03:33:07.615Z,38.90
2022-10-19T03:36:14.987Z,23.57
2022-10-19T03:39:06.622Z,26.53
2022-10-19T03:41:55.604Z,23.50
2022-10-19T03:44:44.539Z,26.80
2022-10-19T03:47:34.962Z,28.83
2022-10-19T03:50:24.313Z,25.00
2022-10-19T03:53:12.720Z,24.03
2022-10-19T03:56:05.324Z,32.50
2022-10-19T03:58:56.321Z,26.47
2022-10-19T04:01:46.106Z,22.30
2022-10-19T04:04:36.003Z,23.77
2022-10-19T04:07:24.410Z,26.30
2022-10-19T04:10:12.828Z,23.67
2022-10-19T04:13:01.236Z,25.20
2022-10-19T04:15:49.670Z,24.37
2022-10-19T04:18:38.097Z,25.00
2022-10-19T04:21:29.351Z,20.80
2022-10-19T04:24:19.357Z,24.63
2022-10-19T04:27:07.915Z,28.90
2022-10-19T04:29:56.346Z,27.00
2022-10-19T04:32:44.746Z,30.33
2022-10-19T04:35:33.149Z,27.37
2022-10-19T04:38:22.961Z,26.93
2022-10-19T04:41:14.091Z,28.03
2022-10-19T04:44:04.602Z,25.60
2022-10-19T04:46:53.019Z,26.30
2022-10-19T04:49:41.451Z,27.20
2022-10-19T04:52:29.852Z,29.50
2022-10-19T04:55:19.645Z,31.13
2022-10-19T04:58:08.062Z,26.03
2022-10-19T05:00:56.503Z,26.03
2022-10-19T05:03:45.431Z,27.20
2022-10-19T05:06:34.027Z,32.63
2022-10-19T05:09:22.427Z,28.83
2022-10-19T05:12:12.192Z,29.47
2022-10-19T05:15:00.582Z,24.10
2022-10-19T05:17:49.038Z,24.30
2022-10-19T05:20:37.730Z,27.43
2022-10-19T05:23:26.214Z,31.03
2022-10-19T05:26:17.344Z,23.83
2022-10-19T05:29:07.205Z,24.67
2022-10-19T05:31:55.635Z,26.87
2022-10-19T05:34:44.086Z,25.23
2022-10-19T05:37:32.719Z,20.10
2022-10-19T05:40:21.544Z,20.33
2022-10-19T05:43:09.939Z,26.00
2022-10-19T05:46:04.249Z,22.63
2022-10-19T05:48:52.812Z,26.47
2022-10-19T05:51:41.723Z,23.77
2022-10-19T05:54:30.246Z,26.37
2022-10-19T05:57:18.702Z,24.50
2022-10-19T06:00:07.964Z,28.40
2022-10-19T06:02:59.178Z,24.60
2022-10-19T06:05:47.783Z,30.47
2022-10-19T06:08:36.482Z,23.13
2022-10-19T06:11:26.909Z,24.60
2022-10-19T06:14:16.861Z,23.87
2022-10-19T06:17:06.608Z,25.70
2022-10-19T06:19:56.371Z,23.83
2022-10-19T06:22:44.826Z,24.67
2022-10-19T06:25:33.628Z,25.80
2022-10-19T06:28:22.075Z,21.87
2022-10-19T06:31:10.763Z,27.13
2022-10-19T06:33:59.420Z,24.80
2022-10-19T06:36:49.223Z,22.33
2022-10-19T06:39:37.619Z,24.10
2022-10-19T06:42:26.051Z,23.97
2022-10-19T06:45:14.543Z,21.03
2022-10-19T06:48:06.612Z,25.57
2022-10-19T06:50:59.930Z,21.40
2022-10-19T06:53:52.892Z,24.03
2022-10-19T06:56:44.937Z,22.00
2022-10-19T06:59:33.397Z,24.60
2022-10-19T07:02:21.949Z,24.00
2022-10-19T07:05:11.048Z,25.20
2022-10-19T07:07:59.608Z,26.53
2022-10-19T07:10:52.364Z,27.70
2022-10-19T07:13:40.844Z,20.60
2022-10-19T07:16:29.426Z,22.63
2022-10-19T07:19:18.112Z,23.57
2022-10-19T07:22:06.659Z,22.90
2022-10-19T07:24:55.149Z,25.70
2022-10-19T07:27:45.263Z,22.27
2022-10-19T07:30:33.692Z,23.33
2022-10-19T07:33:22.151Z,21.77
2022-10-19T07:36:13.155Z,21.47
2022-10-19T07:39:02.140Z,23.20
2022-10-19T07:41:50.565Z,17.43
2022-10-19T07:44:40.331Z,19.63
2022-10-19T07:47:28.746Z,17.37
2022-10-19T07:50:17.172Z,19.53
2022-10-19T07:53:05.620Z,21.40
2022-10-19T07:55:54.081Z,24.23
2022-10-19T07:58:43.096Z,20.20
2022-10-19T08:01:34.532Z,21.50
2022-10-19T08:07:33.929Z,23.47
2022-10-19T08:10:22.437Z,22.30
2022-10-19T08:13:10.973Z,19.40
2022-10-19T08:15:59.477Z,20.23
2022-10-19T08:18:49.824Z,20.90
2022-10-19T08:21:39.595Z,18.50
2022-10-19T08:24:28.020Z,19.83
2022-10-19T08:27:16.489Z,20.33
2022-10-19T08:30:05.506Z,20.90
2022-10-19T08:32:53.977Z,20.00
2022-10-19T08:35:43.754Z,16.57
2022-10-19T08:38:32.179Z,19.33
2022-10-19T08:41:29.341Z,19.23
2022-10-19T08:44:28.245Z,17.80
2022-10-19T08:47:24.139Z,22.40
2022-10-19T08:50:18.961Z,21.20
2022-10-19T08:53:12.892Z,19.67
2022-10-19T08:56:22.125Z,20.50
2022-10-19T08:59:28.088Z,20.60
2022-10-19T09:02:20.129Z,22.23
2022-10-19T09:05:15.943Z,18.93
2022-10-19T09:08:04.449Z,17.40
2022-10-19T09:10:55.054Z,19.30
2022-10-19T09:14:04.309Z,23.10
2022-10-19T09:16:53.877Z,17.93
2022-10-19T09:19:42.460Z,19.73
2022-10-19T09:22:34.341Z,18.53
2022-10-19T09:25:23.896Z,16.00
2022-10-19T09:28:25.699Z,24.63
2022-10-19T09:31:23.690Z,16.20
2022-10-19T09:34:16.291Z,18.10
2022-10-19T09:37:04.952Z,18.67
2022-10-19T09:39:54.978Z,16.33
2022-10-19T09:42:43.899Z,18.47
2022-10-19T09:45:40.694Z,20.83
2022-10-19T09:48:32.243Z,24.33
2022-10-19T09:51:21.955Z,18.67
2022-10-19T09:54:24.399Z,16.43
2022-10-19T09:57:21.444Z,15.40
2022-10-19T10:00:19.039Z,18.17
2022-10-19T10:03:08.923Z,14.47
2022-10-19T10:05:59.105Z,16.03
2022-10-19T10:08:50.000Z,15.50
2022-10-19T10:11:39.386Z,15.20
2022-10-19T10:14:30.306Z,15.47
2022-10-19T10:17:20.813Z,16.97
2022-10-19T10:20:30.267Z,18.50
2022-10-19T10:23:24.801Z,17.40
2022-10-19T10:26:19.773Z,16.87
2022-10-19T10:29:19.368Z,15.93
2022-10-19T10:32:10.395Z,14.70
2022-10-19T10:35:01.774Z,14.17
2022-10-19T10:37:52.093Z,16.17
2022-10-19T10:40:41.208Z,14.30
2022-10-19T10:43:32.550Z,11.63
2022-10-19T10:46:23.271Z,11.40
2022-10-19T10:49:18.571Z,10.90
2022-10-19T10:52:10.028Z,10.47
2022-10-19T10:55:02.336Z,10.13
2022-10-19T10:57:53.785Z,9.97
2022-10-19T11:00:42.603Z,9.43
2022-10-19T11:03:33.156Z,9.97
2022-10-19T11:09:27.408Z,9.60
2022-10-19T11:12:20.993Z,9.70
2022-10-19T11:15:16.311Z,9.03
2022-10-19T11:18:14.774Z,8.20
2022-10-19T11:21:08.309Z,8.07
2022-10-19T11:24:05.656Z,7.90
2022-10-19T11:27:03.697Z,8.33
2022-10-19T11:30:02.790Z,7.37
2022-10-19T11:32:59.070Z,7.33
2022-10-19T11:35:52.897Z,7.97
2022-10-19T11:38:50.549Z,7.40
2022-10-19T11:41:40.185Z,8.47
2022-10-19T11:44:36.980Z,6.10
2022-10-19T11:47:34.670Z,6.20
2022-10-19T11:50:32.657Z,6.40
2022-10-19T11:53:27.419Z,5.77
2022-10-19T11:56:19.872Z,8.90
2022-10-19T11:59:14.419Z,4.80
2022-10-19T12:02:08.481Z,4.53
2022-10-19T12:04:59.930Z,5.10
2022-10-19T12:07:58.109Z,4.27
2022-10-19T12:10:52.056Z,3.87
2022-10-19T12:13:42.262Z,4.90
2022-10-19T12:16:37.050Z,7.70
2022-10-19T12:19:29.085Z,4.00
2022-10-19T12:22:22.824Z,5.50
2022-10-19T12:25:14.334Z,5.73
2022-10-19T12:28:04.146Z,3.13
2022-10-19T12:30:53.463Z,2.73
2022-10-19T12:33:48.160Z,2.73
2022-10-19T12:36:40.884Z,3.40
2022-10-19T12:39:36.090Z,2.60
2022-10-19T12:42:30.526Z,3.00
2022-10-19T12:45:28.574Z,2.63
2022-10-19T12:48:22.905Z,3.10
2022-10-19T12:51:13.637Z,3.47
2022-10-19T12:54:10.646Z,3.07
2022-10-19T12:57:02.802Z,3.67
2022-10-19T13:00:00.806Z,3.77
2022-10-19T13:02:58.042Z,2.53
2022-10-19T13:05:56.755Z,3.63
2022-10-19T13:08:48.807Z,2.73
2022-10-19T13:11:38.354Z,3.00
2022-10-19T13:14:46.412Z,2.37
2022-10-19T13:17:45.556Z,5.00
2022-10-19T13:20:52.711Z,2.83
2022-10-19T13:23:42.799Z,3.37
2022-10-19T13:26:34.109Z,2.97
2022-10-19T13:29:26.509Z,2.90
2022-10-19T13:32:45.105Z,5.70
2022-10-19T13:35:35.227Z,2.93
2022-10-19T13:38:26.729Z,2.77
2022-10-19T13:41:22.696Z,2.70
2022-10-19T13:44:21.298Z,3.20
2022-10-19T13:50:38.991Z,2.67
2022-10-19T13:53:35.836Z,3.40
2022-10-19T13:56:32.609Z,4.83
2022-10-19T13:59:53.777Z,2.97
2022-10-19T14:02:55.906Z,2.97
2022-10-19T14:06:00.624Z,4.07
2022-10-19T14:09:36.533Z,5.10
2022-10-19T14:12:26.309Z,2.90
2022-10-19T14:15:22.517Z,2.87
2022-10-19T14:18:23.551Z,4.83
2022-10-19T14:21:13.534Z,3.53
2022-10-19T14:24:02.187Z,5.10
2022-10-19T14:26:50.682Z,3.90
2022-10-19T14:29:45.582Z,3.63
2022-10-19T14:32:35.440Z,4.63
2022-10-19T14:35:26.101Z,4.17
2022-10-19T14:38:20.549Z,4.23
2022-10-19T14:41:20.487Z,3.93
2022-10-19T14:44:29.845Z,3.83
2022-10-19T14:47:21.156Z,5.70
2022-10-19T14:50:12.499Z,5.97
2022-10-19T14:53:19.088Z,5.77
2022-10-19T14:56:11.017Z,4.07
2022-10-19T14:59:01.914Z,4.27
2022-10-19T15:01:51.200Z,3.60
2022-10-19T15:04:40.347Z,6.80
2022-10-19T15:07:35.370Z,3.10
2022-10-19T15:10:26.095Z,4.53
2022-10-19T15:13:24.710Z,3.43
2022-10-19T15:16:36.101Z,3.93
2022-10-19T15:19:28.288Z,3.83
2022-10-19T15:22:18.831Z,3.17
2022-10-19T15:25:40.224Z,5.93
2022-10-19T15:28:39.020Z,8.80
2022-10-19T15:31:30.344Z,4.20
2022-10-19T15:34:24.308Z,4.67
2022-10-19T15:37:18.495Z,4.70
2022-10-19T15:40:15.022Z,4.73
2022-10-19T15:43:37.553Z,3.97
2022-10-19T15:46:31.517Z,3.83
2022-10-19T15:49:53.993Z,4.77
2022-10-19T15:52:42.453Z,6.63
2022-10-19T15:55:30.904Z,3.50
2022-10-19T15:58:21.054Z,4.03
2022-10-19T16:01:13.031Z,3.83
2022-10-19T16:04:02.917Z,4.23
2022-10-19T16:06:51.576Z,3.10
2022-10-19T16:09:40.065Z,3.70
2022-10-19T16:12:28.856Z,4.00
2022-10-19T16:15:22.243Z,5.93
2022-10-19T16:18:11.435Z,3.37
2022-10-19T16:21:01.544Z,3.47
2022-10-19T16:23:50.135Z,4.03
2022-10-19T16:26:38.660Z,4.17
2022-10-19T16:29:29.020Z,6.80
2022-10-19T16:32:17.682Z,12.40
2022-10-19T16:35:08.248Z,4.27
2022-10-19T16:37:59.015Z,3.77
2022-10-19T16:40:47.455Z,9.13
2022-10-19T16:43:36.284Z,4.90
2022-10-19T16:46:25.226Z,4.60
2022-10-19T16:49:13.718Z,3.97
2022-10-19T16:52:02.581Z,6.10
2022-10-19T16:54:52.461Z,5.20
2022-10-19T16:57:41.012Z,13.33
2022-10-19T17:00:29.559Z,5.20
2022-10-19T17:03:18.119Z,5.00
2022-10-19T17:06:07.687Z,4.47
2022-10-19T17:12:08.056Z,13.13
2022-10-19T17:15:11.588Z,5.03
2022-10-19T17:18:05.473Z,7.33
2022-10-19T17:20:55.576Z,5.23
2022-10-19T17:23:44.583Z,6.50
2022-10-19T17:26:34.592Z,6.00
2022-10-19T17:29:24.868Z,5.30
2022-10-19T17:32:13.374Z,7.20
2022-10-19T17:35:01.831Z,8.43
2022-10-19T17:37:50.313Z,5.83
2022-10-19T17:40:38.987Z,5.70
2022-10-19T17:43:27.500Z,5.30
2022-10-19T17:46:19.086Z,6.80
2022-10-19T17:49:07.621Z,10.93
2022-10-19T17:51:56.195Z,6.80
2022-10-19T17:54:54.719Z,6.47
2022-10-19T17:57:53.027Z,6.57
2022-10-19T18:00:41.510Z,6.77
2022-10-19T18:03:32.811Z,6.97
2022-10-19T18:06:23.152Z,14.57
2022-10-19T18:09:11.710Z,6.43
2022-10-19T18:12:04.740Z,9.07
2022-10-19T18:14:55.688Z,7.87
2022-10-19T18:17:44.178Z,7.30
2022-10-19T18:20:34.038Z,8.30
2022-10-19T18:23:22.540Z,7.40
2022-10-19T18:26:13.244Z,7.53
2022-10-19T18:29:03.407Z,6.80
2022-10-19T18:31:52.575Z,16.20
2022-10-19T18:34:41.212Z,7.60
2022-10-19T18:37:31.024Z,8.60
2022-10-19T18:40:19.530Z,7.77
2022-10-19T18:43:08.017Z,6.97
2022-10-19T18:45:58.099Z,8.57
2022-10-19T18:48:46.584Z,8.47
2022-10-19T18:51:35.462Z,8.00
2022-10-19T18:54:26.175Z,9.70
2022-10-19T18:57:14.762Z,9.30
2022-10-19T19:00:03.356Z,9.60
2022-10-19T19:02:55.035Z,9.40
2022-10-19T19:05:43.559Z,9.93
2022-10-19T19:08:32.208Z,13.57
2022-10-19T19:11:23.800Z,10.53
2022-10-19T19:14:13.805Z,10.77
2022-10-19T19:17:02.533Z,10.60
2022-10-19T19:19:51.039Z,12.33
2022-10-19T19:22:39.544Z,12.33
2022-10-19T19:25:28.448Z,13.67
2022-10-19T19:28:18.530Z,12.23
2022-10-19T19:31:07.443Z,12.20
2022-10-19T19:33:56.282Z,12.37
2022-10-19T19:36:49.694Z,15.57
2022-10-19T19:39:38.398Z,13.30
2022-10-19T19:42:28.004Z,13.40
2022-10-19T19:45:18.118Z,14.20
2022-10-19T19:48:08.003Z,12.53
2022-10-19T19:50:56.437Z,21.43
2022-10-19T19:53:45.367Z,15.03
2022-10-19T19:56:34.015Z,16.60
2022-10-19T19:59:22.594Z,12.97
2022-10-19T20:02:12.667Z,13.53
2022-10-19T20:05:01.117Z,14.03
2022-10-19T20:07:49.593Z,12.43
2022-10-19T20:10:39.286Z,12.43
2022-10-19T20:13:27.755Z,12.33
2022-10-19T20:16:18.127Z,17.27
2022-10-19T20:19:09.422Z,15.17
2022-10-19T20:22:00.092Z,13.20
2022-10-19T20:24:48.512Z,16.33
2022-10-19T20:27:37.496Z,14.20
2022-10-19T20:30:26.096Z,14.47
2022-10-19T20:33:14.653Z,14.00
2022-10-19T20:36:08.825Z,15.80
2022-10-19T20:38:58.451Z,18.00
2022-10-19T20:41:46.916Z,12.27
2022-10-19T20:44:35.453Z,14.83
2022-10-19T20:47:23.951Z,13.83
2022-10-19T20:50:12.488Z,23.87
2022-10-19T20:53:02.324Z,18.03
2022-10-19T20:55:50.763Z,15.50
2022-10-19T20:58:40.828Z,19.67
2022-10-19T21:01:30.324Z,14.87
2022-10-19T21:04:18.857Z,13.80
2022-10-19T21:07:07.644Z,13.53
2022-10-19T21:09:57.693Z,13.93
2022-10-19T21:12:46.134Z,14.13
2022-10-19T21:15:34.615Z,20.60
2022-10-19T21:18:23.076Z,16.03
2022-10-19T21:21:16.390Z,14.20
2022-10-19T21:24:06.832Z,13.30
2022-10-19T21:26:56.604Z,16.67
2022-10-19T21:29:45.080Z,17.83
2022-10-19T21:32:33.547Z,15.40
2022-10-19T21:35:22.003Z,13.80
2022-10-19T21:44:03.176Z,15.97
2022-10-19T21:46:51.938Z,16.97
2022-10-19T21:49:40.425Z,15.70
2022-10-19T21:52:28.859Z,22.50
2022-10-19T21:55:17.321Z,17.83
2022-10-19T21:58:06.080Z,14.63
2022-10-19T22:00:55.882Z,14.10
2022-10-19T22:03:44.338Z,16.23
2022-10-19T22:06:34.764Z,14.70
2022-10-19T22:09:23.526Z,16.00
2022-10-19T22:12:11.969Z,14.90
2022-10-19T22:15:00.366Z,15.40
2022-10-19T22:17:50.155Z,16.00
2022-10-19T22:20:39.336Z,17.73
2022-10-19T22:23:27.754Z,14.83
2022-10-19T22:26:17.627Z,14.20
2022-10-19T22:29:07.298Z,17.13
2022-10-19T22:31:55.752Z,16.80
2022-10-19T22:34:45.543Z,14.90
2022-10-19T22:37:35.361Z,16.43
2022-10-19T22:40:23.803Z,21.87
2022-10-19T22:43:12.245Z,15.60
2022-10-19T22:46:00.703Z,14.47
2022-10-19T22:48:51.717Z,16.67
2022-10-19T22:51:41.476Z,16.47
2022-10-19T22:54:29.911Z,15.70
2022-10-19T22:57:18.324Z,22.33
2022-10-19T23:00:07.877Z,16.03
2022-10-19T23:02:56.342Z,16.07
2022-10-19T23:05:44.749Z,16.17
2022-10-19T23:08:34.722Z,14.13
2022-10-19T23:11:23.621Z,18.40
2022-10-19T23:14:12.059Z,16.50
2022-10-19T23:17:00.506Z,19.30
2022-10-19T23:19:48.936Z,20.53
2022-10-19T23:22:37.379Z,16.03
2022-10-19T23:25:27.277Z,20.40
2022-10-19T23:28:15.733Z,17.93
2022-10-19T23:31:05.667Z,17.03
2022-10-19T23:33:55.847Z,16.37
2022-10-19T23:36:44.284Z,14.13
2022-10-19T23:39:32.773Z,17.00
2022-10-19T23:42:22.539Z,15.60
2022-10-19T23:45:12.995Z,18.13
2022-10-19T23:48:01.689Z,36.80
2022-10-19T23:50:57.959Z,16.00
2022-10-19T23:53:48.151Z,15.83
2022-10-19T23:56:36.617Z,17.00
2022-10-19T23:59:26.397Z,17.43
